Time;durP1;ratioP1;P1;durP2;ratioP2;P2;SDS_P1;SDS_P2;PMS_P1;PMS_P2;Temp;Humidity;BMP_temperature;BMP_pressure;BME280_temperature;BME280_humidity;BME280_pressure;Samples;Min_cycle;Max_cycle;Signal;HPM_P1;HPM_P2
2021/12/11 00:01:51;;;;;;;90.20;43.33;;;1.50;99.90;;;;;;4900421;29;20268;-90
2021/12/11 00:04:42;;;;;;;92.47;35.97;;;1.40;99.90;;;;;;4916425;29;20181;-90
2021/12/11 00:07:19;;;;;;;90.90;41.53;;;1.30;99.90;;;;;;4899696;29;20201;-90
2021/12/11 00:10:22;;;;;;;91.22;43.15;;;1.30;99.90;;;;;;4899279;29;20169;-90
2021/12/11 00:12:57;;;;;;;87.97;36.08;;;1.30;99.90;;;;;;4900266;29;20228;-89
2021/12/11 00:15:35;;;;;;;91.97;42.85;;;1.30;99.90;;;;;;4905660;29;20204;-90
2021/12/11 00:18:10;;;;;;;96.07;42.65;;;1.20;99.90;;;;;;4915853;29;20177;-89
2021/12/11 00:20:51;;;;;;;93.10;44.40;;;1.10;99.90;;;;;;4915806;29;20165;-90
2021/12/11 00:23:37;;;;;;;89.07;35.45;;;1.10;99.90;;;;;;4896917;29;20261;-89
2021/12/11 00:26:08;;;;;;;92.55;33.03;;;1.20;99.90;;;;;;4898073;29;20205;-89
2021/12/11 00:28:53;;;;;;;90.55;37.33;;;1.10;99.90;;;;;;4897889;29;20173;-89
2021/12/11 00:31:20;;;;;;;91.20;40.58;;;1.10;99.90;;;;;;4898758;29;20173;-89
2021/12/11 00:33:55;;;;;;;89.47;36.85;;;1.10;99.90;;;;;;4897925;29;20170;-89
2021/12/11 00:36:31;;;;;;;94.85;42.83;;;1.00;99.90;;;;;;4897356;29;20201;-89
2021/12/11 00:39:21;;;;;;;;;;;;;;;;;;;;;
2021/12/11 00:41:53;;;;;;;91.88;48.50;;;1.00;99.90;;;;;;4898692;29;20170;-89
2021/12/11 00:44:52;;;;;;;99.35;47.70;;;1.00;99.90;;;;;;4898597;29;20247;-89
2021/12/11 00:47:23;;;;;;;89.57;45.95;;;1.00;99.90;;;;;;4896804;29;20213;-89
2021/12/11 00:50:14;;;;;;;98.03;52.78;;;1.00;99.90;;;;;;4897941;29;20535;-89
2021/12/11 00:52:51;;;;;;;92.30;51.42;;;1.10;99.90;;;;;;4898244;29;20170;-90
2021/12/11 00:55:26;;;;;;;94.13;47.85;;;1.10;99.90;;;;;;4898289;29;20178;-89
2021/12/11 00:58:07;;;;;;;93.53;53.67;;;1.10;99.90;;;;;;4897373;29;20180;-89
2021/12/11 01:00:39;;;;;;;92.10;49.25;;;1.20;99.90;;;;;;4897769;29;20563;-89
2021/12/11 01:03:06;;;;;;;87.70;42.92;;;1.10;99.90;;;;;;4897602;29;20543;-89
2021/12/11 01:05:44;;;;;;;95.28;52.70;;;1.20;99.90;;;;;;4898076;29;20174;-89
2021/12/11 01:08:17;;;;;;;95.82;46.03;;;1.10;99.90;;;;;;4896795;29;20249;-89
2021/12/11 01:10:44;;;;;;;93.95;41.88;;;1.10;99.90;;;;;;4899656;29;20572;-89
2021/12/11 01:13:13;;;;;;;103.03;51.25;;;1.10;99.90;;;;;;4902396;29;20598;-89
2021/12/11 01:15:48;;;;;;;91.95;45.47;;;1.10;99.90;;;;;;4902401;29;20205;-89
2021/12/11 01:18:34;;;;;;;92.43;44.95;;;1.10;99.90;;;;;;4902212;29;20150;-89
2021/12/11 01:26:43;;;;;;;104.53;57.40;;;1.10;99.90;;;;;;4902360;29;20190;-89
2021/12/11 01:29:09;;;;;;;111.47;76.25;;;1.20;99.90;;;;;;4901278;29;20174;-89
2021/12/11 01:31:36;;;;;;;111.43;65.80;;;1.40;99.90;;;;;;4900365;29;20604;-89
2021/12/11 01:34:10;;;;;;;120.05;88.65;;;1.60;99.90;;;;;;4900472;29;20178;-90
2021/12/11 01:36:39;;;;;;;119.30;84.70;;;1.80;99.90;;;;;;4900850;29;20577;-90
2021/12/11 01:39:16;;;;;;;124.18;98.38;;;2.00;99.90;;;;;;4900555;29;20238;-90
2021/12/11 01:41:44;;;;;;;119.18;92.38;;;2.10;99.90;;;;;;4901154;29;20166;-90
2021/12/11 01:44:32;;;;;;;;;;;;;;;;;;;;;
2021/12/11 01:47:28;;;;;;;132.27;118.10;;;2.30;99.90;;;;;;4901552;29;20660;-91
2021/12/11 01:50:17;;;;;;;;;;;;;;;;;;;;;
2021/12/11 01:53:14;;;;;;;121.45;97.43;;;2.50;99.90;;;;;;4901315;29;20182;-91
2021/12/11 01:55:53;;;;;;;141.95;126.95;;;2.50;99.90;;;;;;4901550;29;20206;-91
2021/12/11 01:59:26;;;;;;;130.77;116.82;;;2.50;99.90;;;;;;4901297;29;20531;-91
2021/12/11 02:02:20;;;;;;;127.88;113.97;;;2.60;99.90;;;;;;4916801;29;20309;-91
2021/12/11 02:05:40;;;;;;;135.02;120.90;;;2.60;99.90;;;;;;4900896;29;20181;-91
2021/12/11 02:08:26;;;;;;;117.15;95.85;;;2.60;99.90;;;;;;4900150;29;20182;-91
2021/12/11 02:11:31;;;;;;;126.03;99.65;;;2.70;99.90;;;;;;4901342;29;20158;-91
2021/12/11 02:14:09;;;;;;;131.90;117.90;;;2.70;99.90;;;;;;4899312;29;20170;-91
2021/12/11 02:20:31;;;;;;;125.45;99.18;;;2.70;99.90;;;;;;4932032;29;20188;-91
2021/12/11 02:23:38;;;;;;;132.38;117.45;;;2.80;99.90;;;;;;4899441;29;20185;-92
2021/12/11 02:26:30;;;;;;;149.02;134.05;;;2.80;99.90;;;;;;4899205;29;20197;-91
2021/12/11 02:29:32;;;;;;;133.48;118.88;;;2.80;99.90;;;;;;4899756;29;20539;-91
2021/12/11 02:32:48;;;;;;;126.20;101.28;;;2.80;99.90;;;;;;4900372;29;20531;-91
2021/12/11 02:35:22;;;;;;;137.85;122.82;;;2.80;99.90;;;;;;4899222;29;20190;-91
2021/12/11 02:38:16;;;;;;;119.28;92.60;;;2.80;99.90;;;;;;4901260;29;20184;-91
2021/12/11 02:44:32;;;;;;;118.13;92.82;;;2.90;99.90;;;;;;4917439;29;20172;-91
2021/12/11 02:47:35;;;;;;;122.68;98.07;;;2.90;99.90;;;;;;4908821;29;20218;-91
2021/12/11 02:50:45;;;;;;;127.25;90.97;;;2.90;99.90;;;;;;4898401;29;20197;-92
2021/12/11 02:53:45;;;;;;;113.93;81.63;;;2.90;99.90;;;;;;4900607;29;20166;-92
2021/12/11 02:57:09;;;;;;;127.20;99.65;;;2.90;99.90;;;;;;4898520;29;20214;-92
2021/12/11 02:59:57;;;;;;;120.82;87.07;;;3.00;99.90;;;;;;4898023;29;20651;-92
2021/12/11 03:02:43;;;;;;;129.63;108.45;;;2.90;99.90;;;;;;4898900;29;20654;-92
2021/12/11 03:05:18;;;;;;;121.18;85.63;;;3.00;99.90;;;;;;4900149;29;20538;-91
2021/12/11 03:07:54;;;;;;;128.52;97.57;;;3.00;99.90;;;;;;4900513;29;20173;-92
2021/12/11 03:10:29;;;;;;;127.05;95.53;;;3.00;99.90;;;;;;4899186;29;20225;-91
2021/12/11 03:13:29;;;;;;;122.53;93.63;;;3.00;99.90;;;;;;4899563;29;20169;-91
2021/12/11 03:16:11;;;;;;;120.30;86.07;;;3.00;99.90;;;;;;4899213;29;20205;-91
2021/12/11 03:18:45;;;;;;;121.40;99.75;;;3.00;99.90;;;;;;4899009;29;20190;-91
2021/12/11 03:21:37;;;;;;;130.15;108.10;;;2.90;99.90;;;;;;4899741;29;20528;-92
2021/12/11 03:24:33;;;;;;;124.90;102.65;;;3.00;99.90;;;;;;4899174;29;20209;-91
2021/12/11 03:27:23;;;;;;;118.97;91.57;;;3.00;99.90;;;;;;4898911;29;20229;-92
2021/12/11 03:29:54;;;;;;;123.28;100.65;;;3.00;99.90;;;;;;4885466;29;20212;-91
2021/12/11 03:32:35;;;;;;;121.28;90.88;;;3.00;99.90;;;;;;4898746;29;20636;-92
2021/12/11 03:35:15;;;;;;;121.07;84.97;;;3.00;99.90;;;;;;4898555;29;20181;-91
2021/12/11 03:38:32;;;;;;;116.53;88.82;;;3.00;99.90;;;;;;4898437;29;20624;-92
2021/12/11 03:41:27;;;;;;;126.60;89.70;;;3.00;99.90;;;;;;4905533;29;20182;-92
2021/12/11 03:43:59;;;;;;;119.22;86.00;;;2.90;99.90;;;;;;4898456;29;20647;-91
2021/12/11 03:47:04;;;;;;;121.70;91.30;;;2.90;99.90;;;;;;4898445;29;20209;-91
2021/12/11 03:49:30;;;;;;;114.30;77.53;;;2.90;99.90;;;;;;4900816;29;20269;-91
2021/12/11 03:52:19;;;;;;;114.90;80.90;;;2.80;99.90;;;;;;4899952;29;20651;-91
2021/12/11 03:55:04;;;;;;;126.43;99.35;;;2.80;99.90;;;;;;4900454;29;20189;-91
2021/12/11 03:57:42;;;;;;;120.80;88.78;;;2.80;99.90;;;;;;4898007;29;20719;-91
2021/12/11 04:00:26;;;;;;;128.63;95.32;;;2.70;99.90;;;;;;4899715;29;20571;-91
2021/12/11 04:03:16;;;;;;;125.75;96.85;;;2.70;99.90;;;;;;4898686;29;20255;-91
2021/12/11 04:05:52;;;;;;;112.85;80.82;;;2.70;99.90;;;;;;4898616;29;20669;-91
2021/12/11 04:08:34;;;;;;;121.28;88.97;;;2.80;99.90;;;;;;4897956;29;20268;-91
2021/12/11 04:11:24;;;;;;;115.03;83.65;;;2.80;99.90;;;;;;4897629;29;20193;-91
2021/12/11 04:14:34;;;;;;;122.53;88.03;;;2.70;99.90;;;;;;4915842;29;20185;-91
2021/12/11 04:17:22;;;;;;;118.32;72.95;;;2.80;99.90;;;;;;4894369;29;20273;-91
2021/12/11 04:20:51;;;;;;;128.45;94.97;;;2.70;99.90;;;;;;4896919;29;20204;-91
2021/12/11 05:34:20;;;;;;;122.50;89.90;;;2.40;99.90;;;;;;5485517;23;15305838;-90
2021/12/11 05:55:18;;;;;;;;;;;;;;;;;;;;;
2021/12/11 05:58:34;;;;;;;;;;;;;;;;;;;;;
2021/12/11 06:02:10;;;;;;;;;;;;;;;;;;;;;
2021/12/11 06:36:47;;;;;;;113.72;75.60;;;2.10;99.90;;;;;;6150268;23;20538;-88
2021/12/11 06:39:36;;;;;;;116.55;77.55;;;2.10;99.90;;;;;;6126550;23;20165;-88
2021/12/11 06:43:05;;;;;;;117.22;78.72;;;2.10;99.90;;;;;;6126637;23;20165;-88
2021/12/11 06:46:47;;;;;;;;;;;;;;;;;;;;;
2021/12/11 06:54:07;;;;;;;115.32;75.70;;;2.10;99.90;;;;;;6093395;23;20182;-88
2021/12/11 06:57:18;;;;;;;112.32;68.55;;;2.20;99.90;;;;;;5943477;23;20217;-88
2021/12/11 07:00:10;;;;;;;123.32;76.85;;;2.30;99.90;;;;;;5925724;23;20161;-88
2021/12/11 07:11:16;;;;;;;;;;;;;;;;;;;;;
2021/12/11 07:14:36;;;;;;;113.25;78.30;;;2.40;99.90;;;;;;5983828;23;20236;-88
2021/12/11 07:54:12;;;;;;;;;;;;;;;;;;;;;
2021/12/11 08:57:06;;;;;;;;;;;;;;;;;;;;;
2021/12/11 09:04:30;;;;;;;114.88;83.82;;;3.60;99.90;;;;;;6183041;23;20185;-88
2021/12/11 09:07:35;;;;;;;123.50;76.00;;;3.60;99.90;;;;;;6065288;23;20254;-88
2021/12/11 09:10:21;;;;;;;133.52;95.55;;;3.60;99.90;;;;;;6042530;23;20152;-88
2021/12/11 10:19:18;;;;;;;132.05;99.38;;;4.00;99.90;;;;;;6146972;23;20557;-88
2021/12/11 10:22:08;;;;;;;124.82;90.05;;;3.90;99.90;;;;;;6121309;22;21775;-84
2021/12/11 10:24:41;;;;;;;117.47;84.90;;;3.90;99.90;;;;;;6157075;23;20181;-84
2021/12/11 10:27:17;;;;;;;126.50;100.55;;;4.00;99.90;;;;;;6130538;23;20170;-84
2021/12/11 10:29:45;;;;;;;124.22;94.43;;;4.00;99.90;;;;;;6157558;23;20168;-83
2021/12/11 10:32:18;;;;;;;129.07;113.68;;;4.00;99.90;;;;;;6157358;23;20157;-83
2021/12/11 10:34:48;;;;;;;131.43;106.57;;;4.10;99.90;;;;;;6157563;23;20134;-83
2021/12/11 10:37:24;;;;;;;137.30;122.32;;;4.10;99.90;;;;;;6157342;23;20170;-84
2021/12/11 10:39:53;;;;;;;125.90;100.40;;;4.10;99.90;;;;;;6158136;23;20209;-83
2021/12/11 10:42:20;;;;;;;135.70;119.85;;;4.10;99.90;;;;;;6157940;23;20142;-84
2021/12/11 10:44:51;;;;;;;130.48;113.32;;;4.20;99.90;;;;;;6131778;23;20146;-84
2021/12/11 10:47:21;;;;;;;124.80;104.05;;;4.30;99.90;;;;;;6132190;23;20173;-84
2021/12/11 10:49:49;;;;;;;135.48;110.03;;;4.30;99.90;;;;;;6157206;23;20126;-83
2021/12/11 10:52:28;;;;;;;130.90;107.00;;;4.30;99.90;;;;;;6130647;23;20154;-83
2021/12/11 10:54:56;;;;;;;125.43;104.05;;;4.30;99.90;;;;;;6130800;23;20169;-83
2021/12/11 10:57:26;;;;;;;136.80;121.55;;;4.30;99.90;;;;;;6156686;23;20176;-83
2021/12/11 10:59:55;;;;;;;143.25;127.25;;;4.30;99.90;;;;;;6131652;23;20224;-84
2021/12/11 11:02:28;;;;;;;136.75;119.32;;;4.40;99.90;;;;;;6157308;23;20145;-84
2021/12/11 11:05:04;;;;;;;155.73;139.68;;;4.50;99.90;;;;;;6131726;23;20149;-84
2021/12/11 11:07:30;;;;;;;150.35;135.20;;;4.50;99.90;;;;;;6156810;23;20164;-84
2021/12/11 11:10:09;;;;;;;161.13;146.60;;;4.60;99.90;;;;;;6157052;23;20142;-84
2021/12/11 11:12:39;;;;;;;187.27;171.50;;;4.80;99.90;;;;;;6131696;23;20369;-84
2021/12/11 11:15:11;;;;;;;133.23;120.00;;;4.90;99.90;;;;;;6157719;22;20201;-84
2021/12/11 11:17:36;;;;;;;177.43;162.98;;;5.10;99.90;;;;;;6131105;23;20637;-84
2021/12/11 11:20:15;;;;;;;164.80;150.20;;;5.20;99.90;;;;;;6156895;23;20146;-83
2021/12/11 11:22:44;;;;;;;170.43;154.63;;;5.30;99.90;;;;;;6157290;23;20796;-84
2021/12/11 11:25:24;;;;;;;141.10;127.78;;;5.40;99.90;;;;;;6157054;23;20138;-84
2021/12/11 11:27:57;;;;;;;172.52;157.60;;;5.50;99.90;;;;;;6157061;22;20165;-84
2021/12/11 11:30:38;;;;;;;139.75;126.45;;;5.60;99.90;;;;;;6156602;23;20138;-84
2021/12/11 11:33:11;;;;;;;139.52;126.07;;;5.70;99.90;;;;;;6156456;23;20149;-84
2021/12/11 11:35:51;;;;;;;144.27;130.55;;;5.80;99.90;;;;;;6156248;23;20174;-84
2021/12/11 11:38:24;;;;;;;127.85;114.70;;;5.70;99.90;;;;;;6156495;23;20209;-84
2021/12/11 11:40:58;;;;;;;119.05;104.10;;;5.80;99.90;;;;;;6157084;23;20206;-84
2021/12/11 11:43:31;;;;;;;144.27;130.63;;;5.70;99.90;;;;;;6156468;23;20243;-84
2021/12/11 11:46:00;;;;;;;126.63;113.68;;;5.70;99.90;;;;;;6157198;23;20154;-84
2021/12/11 11:48:38;;;;;;;118.90;104.97;;;5.80;99.90;;;;;;6156806;23;20650;-84
2021/12/11 11:51:08;;;;;;;116.95;101.93;;;5.80;99.90;;;;;;6156685;23;20164;-84
2021/12/11 11:53:37;;;;;;;124.25;108.88;;;5.80;99.90;;;;;;6131061;23;20153;-84
2021/12/11 11:56:33;;;;;;;113.45;100.47;;;5.70;99.90;;;;;;6156761;23;20169;-84
2021/12/11 11:59:04;;;;;;;114.28;100.30;;;5.80;99.90;;;;;;6156214;23;20154;-84
2021/12/11 12:01:51;;;;;;;158.38;143.88;;;5.80;99.90;;;;;;6157042;23;20145;-84
2021/12/11 12:04:21;;;;;;;114.30;100.80;;;5.90;99.90;;;;;;6130868;23;20232;-84
2021/12/11 12:06:59;;;;;;;122.93;110.18;;;5.90;99.90;;;;;;6156829;23;20606;-84
2021/12/11 12:09:39;;;;;;;133.05;120.05;;;6.00;99.90;;;;;;6131250;23;20137;-84
2021/12/11 12:12:11;;;;;;;146.90;132.82;;;6.00;99.90;;;;;;6156856;22;20154;-84
2021/12/11 12:14:46;;;;;;;146.43;132.52;;;6.10;99.90;;;;;;6130787;23;20177;-84
2021/12/11 12:17:39;;;;;;;141.82;127.82;;;6.20;99.90;;;;;;6156912;23;20184;-84
2021/12/11 12:20:16;;;;;;;129.57;116.32;;;6.20;99.90;;;;;;6129428;23;20161;-84
2021/12/11 12:22:46;;;;;;;147.50;133.40;;;6.30;99.90;;;;;;6131633;23;20181;-84
2021/12/11 12:25:13;;;;;;;132.73;119.60;;;6.30;99.90;;;;;;6157202;23;20153;-84
2021/12/11 12:27:43;;;;;;;133.00;119.45;;;6.30;99.90;;;;;;6156605;22;20587;-84
2021/12/11 12:30:32;;;;;;;131.50;118.40;;;6.30;99.90;;;;;;6131669;23;20146;-85
2021/12/11 12:33:00;;;;;;;135.90;123.05;;;6.30;99.90;;;;;;6155533;23;20146;-84
2021/12/11 12:35:37;;;;;;;159.90;145.23;;;6.30;99.90;;;;;;6157142;22;20614;-85
2021/12/11 12:38:08;;;;;;;134.20;121.00;;;6.30;99.90;;;;;;6157346;23;20130;-84
2021/12/11 12:40:44;;;;;;;143.85;129.95;;;6.30;99.90;;;;;;6130900;23;20165;-85
2021/12/11 12:43:42;;;;;;;112.63;99.07;;;6.40;99.90;;;;;;6157032;23;20158;-84
2021/12/11 12:46:12;;;;;;;159.23;144.88;;;6.40;99.90;;;;;;6155939;23;20162;-84
2021/12/11 12:48:38;;;;;;;114.32;102.78;;;6.40;99.90;;;;;;6156746;23;20146;-84
2021/12/11 12:51:07;;;;;;;110.43;98.93;;;6.40;99.90;;;;;;6156820;23;20479;-85
2021/12/11 12:53:36;;;;;;;124.70;112.72;;;6.50;99.90;;;;;;6156718;23;20937;-84
2021/12/11 12:56:20;;;;;;;112.85;101.60;;;6.50;99.90;;;;;;6157204;23;20185;-85
2021/12/11 12:59:03;;;;;;;106.68;91.63;;;6.50;99.90;;;;;;6156834;23;20150;-84
2021/12/11 13:01:46;;;;;;;103.75;86.50;;;6.50;99.90;;;;;;6131048;23;20150;-85
2021/12/11 13:04:15;;;;;;;101.35;86.97;;;6.60;99.90;;;;;;6131385;23;20244;-85
2021/12/11 13:06:51;;;;;;;99.65;83.85;;;6.60;99.90;;;;;;6156000;23;20494;-86
2021/12/11 13:09:26;;;;;;;115.20;100.05;;;6.70;99.90;;;;;;6156913;23;20152;-85
2021/12/11 13:11:58;;;;;;;102.72;91.10;;;6.70;99.90;;;;;;6157040;23;20189;-86
2021/12/11 13:14:29;;;;;;;101.07;73.95;;;6.70;99.90;;;;;;6130873;23;20150;-85
2021/12/11 13:17:00;;;;;;;97.53;74.72;;;6.80;99.90;;;;;;6157073;23;20165;-85
2021/12/11 13:19:36;;;;;;;92.45;64.07;;;6.80;99.90;;;;;;6157407;23;20134;-85
2021/12/11 13:22:37;;;;;;;93.50;60.92;;;6.80;99.90;;;;;;6130447;23;20157;-85
2021/12/11 13:25:40;;;;;;;97.85;78.82;;;6.90;99.90;;;;;;6137927;23;20215;-85
2021/12/11 13:28:06;;;;;;;93.95;56.97;;;6.90;99.90;;;;;;6158418;23;20133;-85
2021/12/11 13:30:37;;;;;;;89.30;58.53;;;6.90;99.90;;;;;;6131936;23;20618;-85
2021/12/11 13:33:06;;;;;;;96.57;73.72;;;6.90;99.90;;;;;;6133149;23;20150;-85
2021/12/11 13:35:37;;;;;;;94.68;70.32;;;6.90;99.90;;;;;;6132385;23;20161;-85
2021/12/11 13:38:05;;;;;;;92.35;66.43;;;6.90;99.90;;;;;;6132443;23;20138;-85
2021/12/11 13:40:32;;;;;;;94.63;67.63;;;6.90;99.90;;;;;;6158925;22;20146;-85
2021/12/11 13:43:01;;;;;;;96.47;71.72;;;6.90;99.90;;;;;;6158275;23;20162;-85
2021/12/11 13:45:35;;;;;;;101.28;81.88;;;6.90;99.90;;;;;;6158081;23;20139;-85
2021/12/11 13:48:08;;;;;;;102.35;85.47;;;6.90;99.90;;;;;;6158043;23;20177;-85
2021/12/11 13:50:50;;;;;;;106.07;89.43;;;6.80;99.90;;;;;;6132214;23;20229;-84
2021/12/11 13:53:17;;;;;;;101.55;82.05;;;6.80;99.90;;;;;;6132625;23;20513;-85
2021/12/11 13:56:13;;;;;;;99.75;87.47;;;6.70;99.90;;;;;;6132767;23;20174;-85
2021/12/11 13:58:39;;;;;;;104.05;80.57;;;6.70;99.90;;;;;;6158076;23;20150;-85
2021/12/11 14:01:14;;;;;;;104.70;81.82;;;6.60;99.90;;;;;;6157949;23;20157;-85
2021/12/11 14:03:43;;;;;;;102.10;87.30;;;6.70;99.90;;;;;;6157966;23;20486;-85
2021/12/11 14:06:12;;;;;;;101.32;89.40;;;6.70;99.90;;;;;;6131753;23;20235;-85
2021/12/11 14:08:41;;;;;;;109.22;97.80;;;6.60;99.90;;;;;;6158258;23;20610;-85
2021/12/11 14:11:11;;;;;;;105.53;90.13;;;6.70;99.90;;;;;;6159066;23;20160;-85
2021/12/11 14:13:40;;;;;;;99.75;84.85;;;6.60;99.90;;;;;;6133877;23;20156;-85
2021/12/11 14:16:11;;;;;;;106.78;85.28;;;6.60;99.90;;;;;;6131325;23;20174;-85
2021/12/11 14:18:46;;;;;;;114.93;103.30;;;6.60;99.90;;;;;;6132859;23;20142;-85
2021/12/11 14:21:12;;;;;;;113.72;94.47;;;6.60;99.90;;;;;;6133632;23;20246;-84
2021/12/11 14:23:40;;;;;;;98.33;84.07;;;6.50;99.90;;;;;;6157595;23;20694;-85
2021/12/11 14:26:13;;;;;;;101.38;72.10;;;6.60;99.90;;;;;;6132403;23;20825;-85
2021/12/11 14:28:45;;;;;;;103.03;91.38;;;6.60;99.90;;;;;;6158177;23;20130;-85
2021/12/11 14:31:31;;;;;;;111.97;98.65;;;6.60;99.90;;;;;;6158266;23;20176;-85
2021/12/11 14:34:02;;;;;;;116.28;103.88;;;6.60;99.90;;;;;;6158109;23;20154;-85
2021/12/11 14:36:37;;;;;;;99.13;71.82;;;6.60;99.90;;;;;;6155083;23;20169;-85
2021/12/11 14:39:14;;;;;;;107.95;90.82;;;6.50;99.90;;;;;;6132531;23;20602;-84
2021/12/11 14:42:05;;;;;;;103.18;88.05;;;6.50;99.90;;;;;;6158092;23;20137;-85
2021/12/11 14:44:33;;;;;;;110.13;98.28;;;6.60;99.90;;;;;;6157704;23;20169;-85
2021/12/11 14:47:11;;;;;;;103.47;92.28;;;6.60;99.90;;;;;;6131249;23;20165;-85
2021/12/11 14:49:41;;;;;;;114.40;102.60;;;6.60;99.90;;;;;;6132051;23;20543;-85
2021/12/11 14:52:26;;;;;;;115.45;101.03;;;6.60;99.90;;;;;;6157641;23;20173;-85
2021/12/11 14:55:13;;;;;;;113.57;101.72;;;6.60;99.90;;;;;;6132442;23;20141;-85
2021/12/11 14:57:52;;;;;;;101.03;82.18;;;6.50;99.90;;;;;;6130903;23;20173;-85
2021/12/11 15:00:39;;;;;;;;;;;;;;;;;;;;;
2021/12/11 15:06:07;;;;;;;102.65;81.53;;;6.60;99.90;;;;;;6150764;23;20174;-84
2021/12/11 15:08:48;;;;;;;100.57;78.78;;;6.60;99.90;;;;;;6131553;23;20589;-84
2021/12/11 15:11:31;;;;;;;106.57;80.03;;;6.60;99.90;;;;;;6131703;23;20656;-85
2021/12/11 15:14:15;;;;;;;101.80;81.38;;;6.60;99.90;;;;;;6132030;23;20583;-85
2021/12/11 15:17:10;;;;;;;98.25;79.90;;;6.60;99.90;;;;;;6131385;23;20649;-84
2021/12/11 15:19:37;;;;;;;100.53;82.40;;;6.60;99.90;;;;;;6101644;23;20150;-84
2021/12/11 15:22:09;;;;;;;110.75;85.57;;;6.50;99.90;;;;;;6157632;23;20142;-84
2021/12/11 15:24:39;;;;;;;105.18;93.82;;;6.60;99.90;;;;;;6131227;23;20169;-84
2021/12/11 15:27:27;;;;;;;114.65;102.50;;;6.60;99.90;;;;;;6130369;23;20166;-84
2021/12/11 15:30:03;;;;;;;112.18;92.95;;;6.60;99.90;;;;;;6117448;23;20153;-85
2021/12/11 15:32:36;;;;;;;105.28;89.18;;;6.50;99.90;;;;;;6158312;23;20142;-85
2021/12/11 15:35:06;;;;;;;148.95;135.35;;;6.60;99.90;;;;;;6157330;23;20579;-84
2021/12/11 15:37:38;;;;;;;105.53;90.90;;;6.50;99.90;;;;;;6157487;23;20162;-85
2021/12/11 15:40:19;;;;;;;115.70;85.57;;;6.50;99.90;;;;;;6157753;23;20178;-84
2021/12/11 15:43:00;;;;;;;112.47;96.35;;;6.40;99.90;;;;;;6142874;23;20185;-84
2021/12/11 15:45:30;;;;;;;100.97;82.18;;;6.50;99.90;;;;;;6157305;23;20129;-85
2021/12/11 15:48:00;;;;;;;108.22;92.68;;;6.50;99.90;;;;;;6158185;23;20157;-85
2021/12/11 15:50:42;;;;;;;112.40;100.20;;;6.50;99.90;;;;;;6131591;23;20142;-85
2021/12/11 15:53:17;;;;;;;109.35;93.80;;;6.50;99.90;;;;;;6157483;23;20161;-84
2021/12/11 15:55:44;;;;;;;111.22;97.50;;;6.50;99.90;;;;;;6156400;23;20196;-85
2021/12/11 15:58:13;;;;;;;102.97;84.05;;;6.50;99.90;;;;;;6131630;23;20207;-84
2021/12/11 16:01:20;;;;;;;104.10;82.30;;;6.40;99.90;;;;;;6131513;23;20460;-85
2021/12/11 16:03:52;;;;;;;91.30;63.70;;;6.40;99.90;;;;;;6157102;23;20172;-84
2021/12/11 16:06:39;;;;;;;101.22;68.97;;;6.30;99.90;;;;;;6157709;23;20168;-85
2021/12/11 16:09:36;;;;;;;85.72;48.75;;;6.30;99.90;;;;;;6124646;23;20475;-84
2021/12/11 16:12:05;;;;;;;86.35;47.20;;;6.30;99.90;;;;;;6156608;23;20154;-84
2021/12/11 16:14:39;;;;;;;87.22;48.85;;;6.20;99.90;;;;;;6131940;23;20244;-84
2021/12/11 16:17:09;;;;;;;84.63;44.38;;;6.10;99.90;;;;;;6158217;23;20663;-84
2021/12/11 16:19:42;;;;;;;81.65;35.38;;;6.20;99.90;;;;;;6129404;23;20162;-82
2021/12/11 16:49:11;;;;;;;114.18;102.20;;;6.00;99.90;;;;;;6122228;23;20157;-87
2021/12/11 16:52:55;;;;;;;100.60;82.43;;;6.00;99.90;;;;;;6189872;23;20163;-87
2021/12/11 16:56:01;;;;;;;105.15;81.20;;;6.00;99.90;;;;;;6195240;23;20235;-87
2021/12/11 16:59:38;;;;;;;100.63;85.60;;;6.00;99.90;;;;;;6069066;23;20175;-87
2021/12/11 17:10:48;;;;;;;;;;;;;;;;;;;;;
2021/12/11 17:13:16;;;;;;;94.97;72.05;;;6.10;99.90;;;;;;5978422;23;20549;-87
2021/12/11 17:50:56;;;;;;;105.25;93.88;;;6.20;99.90;;;;;;6147762;23;20452;-87
2021/12/11 17:54:07;;;;;;;;;;;;;;;;;;;;;
2021/12/11 18:01:01;;;;;;;;;;;;;;;;;;;;;
2021/12/11 18:04:20;;;;;;;;;;;;;;;;;;;;;
2021/12/11 18:07:48;;;;;;;;;;;;;;;;;;;;;
2021/12/11 18:10:58;;;;;;;105.43;84.00;;;6.10;99.90;;;;;;6096001;23;20680;-90
2021/12/11 18:14:26;;;;;;;;;;;;;;;;;;;;;
2021/12/11 18:23:08;;;;;;;;;;;;;;;;;;;;;
2021/12/11 18:26:24;;;;;;;;;;;;;;;;;;;;;
2021/12/11 18:30:04;;;;;;;93.47;40.25;;;5.90;99.90;;;;;;6005863;23;20244;-88
2021/12/11 21:03:47;;;;;;;81.68;38.25;;;4.10;99.90;;;;;;6129713;23;20292;-88
2021/12/11 22:22:08;;;;;;;82.65;37.33;;;4.10;99.90;;;;;;6129655;23;20197;-83
2021/12/11 22:24:36;;;;;;;84.45;42.20;;;4.20;99.90;;;;;;6099050;23;20597;-83
2021/12/11 22:27:15;;;;;;;90.20;49.67;;;4.10;99.90;;;;;;6098588;23;20163;-82
2021/12/11 22:29:50;;;;;;;89.75;43.28;;;4.00;99.90;;;;;;6074645;23;20299;-82
2021/12/11 22:32:23;;;;;;;86.40;41.65;;;3.90;99.90;;;;;;6099104;23;20469;-82
2021/12/11 22:34:54;;;;;;;82.75;35.90;;;3.90;99.90;;;;;;6095865;23;20171;-83
2021/12/11 22:37:26;;;;;;;86.93;35.40;;;3.80;99.90;;;;;;6098650;23;20163;-83
2021/12/11 22:39:57;;;;;;;82.50;38.22;;;3.80;99.90;;;;;;6096413;23;20144;-85
2021/12/11 22:42:30;;;;;;;87.50;43.42;;;3.80;99.90;;;;;;6099414;23;20218;-85
2021/12/11 22:45:08;;;;;;;85.93;45.08;;;3.70;99.90;;;;;;6098751;23;20238;-83
2021/12/11 22:47:40;;;;;;;86.00;41.20;;;3.70;99.90;;;;;;6098382;23;20238;-82
2021/12/11 22:50:14;;;;;;;89.20;41.53;;;3.60;99.90;;;;;;6098587;23;20205;-82
2021/12/11 22:52:46;;;;;;;86.28;47.67;;;3.60;99.90;;;;;;6097343;23;20209;-83
2021/12/11 22:55:32;;;;;;;82.38;39.78;;;3.60;99.90;;;;;;6098735;23;20506;-83
2021/12/11 22:58:12;;;;;;;82.75;29.17;;;3.50;99.90;;;;;;6075124;23;20150;-83
2021/12/11 23:01:21;;;;;;;78.82;33.17;;;3.50;99.90;;;;;;6098777;23;20142;-85
2021/12/11 23:04:27;;;;;;;81.72;29.85;;;3.40;99.90;;;;;;6038673;23;20172;-85
2021/12/11 23:07:10;;;;;;;;;;;;;;;;;;;;;
2021/12/11 23:09:47;;;;;;;79.80;28.45;;;3.40;99.90;;;;;;6098258;23;20206;-85
2021/12/11 23:12:28;;;;;;;81.20;32.33;;;3.40;99.90;;;;;;6097336;23;20139;-85
2021/12/11 23:15:09;;;;;;;84.85;43.55;;;3.30;99.90;;;;;;6072578;23;20192;-85
2021/12/11 23:17:51;;;;;;;98.32;71.63;;;3.30;99.90;;;;;;6072218;23;20175;-85
2021/12/11 23:20:29;;;;;;;86.80;52.67;;;3.20;99.90;;;;;;6098148;23;20607;-85
2021/12/11 23:23:10;;;;;;;89.15;49.67;;;3.30;99.90;;;;;;6097748;23;20169;-85
2021/12/11 23:26:04;;;;;;;84.07;43.60;;;3.30;99.90;;;;;;6097235;23;20233;-85
2021/12/11 23:28:44;;;;;;;85.25;42.30;;;3.40;99.90;;;;;;6096377;23;20198;-85
2021/12/11 23:31:24;;;;;;;83.80;38.58;;;3.40;99.90;;;;;;6098016;23;20508;-84
2021/12/11 23:34:07;;;;;;;87.47;49.15;;;3.40;99.90;;;;;;6099401;23;20131;-85
2021/12/11 23:36:44;;;;;;;88.35;56.35;;;3.30;99.90;;;;;;6098505;23;20678;-85
2021/12/11 23:39:21;;;;;;;85.47;45.47;;;3.30;99.90;;;;;;6098565;23;20154;-85
2021/12/11 23:41:58;;;;;;;95.13;63.70;;;3.30;99.90;;;;;;6099133;23;20131;-85
2021/12/11 23:44:38;;;;;;;85.68;46.85;;;3.30;99.90;;;;;;6098949;23;20168;-84
2021/12/11 23:47:11;;;;;;;88.90;55.55;;;3.40;99.90;;;;;;6098596;23;20159;-85
2021/12/11 23:49:45;;;;;;;93.55;71.45;;;3.40;99.90;;;;;;6098270;23;20128;-85
2021/12/11 23:52:27;;;;;;;107.93;93.30;;;3.30;99.90;;;;;;6097604;23;20143;-85
2021/12/11 23:54:58;;;;;;;101.97;90.10;;;3.30;99.90;;;;;;6097721;23;20127;-85
2021/12/11 23:57:34;;;;;;;114.18;102.22;;;3.30;99.90;;;;;;6073163;23;20174;-84
